Time;durP1;ratioP1;P1;durP2;ratioP2;P2;SDS_P1;SDS_P2;PMS_P1;PMS_P2;Temp;Humidity;BMP_temperature;BMP_pressure;BME280_temperature;BME280_humidity;BME280_pressure;Samples;Min_cycle;Max_cycle;Signal;HPM_P1;HPM_P2
2022/07/14 00:01:06;;;;;;;11.45;2.92;;;15.90;99.90;;;;;;5131174;27;20403;-71
2022/07/14 00:03:32;;;;;;;8.90;2.35;;;15.70;99.90;;;;;;5130890;27;20097;-71
2022/07/14 00:05:58;;;;;;;13.25;2.47;;;15.80;99.90;;;;;;5149084;27;20520;-70
2022/07/14 00:08:23;;;;;;;7.57;2.10;;;16.70;99.90;;;;;;5130932;27;20046;-73
2022/07/14 00:10:49;;;;;;;7.47;1.73;;;15.90;99.90;;;;;;5131016;27;20030;-71
2022/07/14 00:13:14;;;;;;;9.13;3.45;;;15.90;99.90;;;;;;5149406;27;20039;-71
2022/07/14 00:15:40;;;;;;;9.50;2.20;;;17.00;99.90;;;;;;5113412;27;20038;-71
2022/07/14 00:18:06;;;;;;;8.10;2.33;;;15.70;99.90;;;;;;5142315;27;20096;-72
2022/07/14 00:20:31;;;;;;;8.82;2.33;;;15.80;99.90;;;;;;5117010;27;20043;-71
2022/07/14 00:22:57;;;;;;;10.43;1.98;;;15.90;99.90;;;;;;5135648;27;20071;-71
2022/07/14 00:25:26;;;;;;;8.10;1.90;;;16.40;99.90;;;;;;5135189;27;20126;-71
2022/07/14 00:27:52;;;;;;;5.43;1.45;;;16.00;99.90;;;;;;5116979;27;20096;-71
2022/07/14 00:30:18;;;;;;;7.00;2.00;;;16.10;99.90;;;;;;5116798;27;20070;-71
2022/07/14 00:32:44;;;;;;;10.52;2.13;;;16.10;99.90;;;;;;5116689;27;20128;-71
2022/07/14 00:35:09;;;;;;;8.23;2.20;;;15.90;99.90;;;;;;5116682;27;20054;-71
2022/07/14 00:37:35;;;;;;;7.30;2.10;;;15.70;99.90;;;;;;5135248;27;20039;-71
2022/07/14 00:40:04;;;;;;;5.90;1.70;;;16.40;99.90;;;;;;5116560;27;20063;-71
2022/07/14 00:42:35;;;;;;;8.68;2.30;;;15.80;99.90;;;;;;5116381;27;20039;-71
2022/07/14 00:45:11;;;;;;;7.25;1.90;;;15.70;99.90;;;;;;5134809;27;20043;-71
2022/07/14 00:47:37;;;;;;;7.93;2.30;;;15.60;99.90;;;;;;5116392;27;20050;-71
2022/07/14 00:50:05;;;;;;;8.95;1.73;;;15.90;99.90;;;;;;5116563;27;20039;-71
2022/07/14 00:52:31;;;;;;;5.38;1.88;;;15.60;99.90;;;;;;5116274;27;20031;-71
2022/07/14 00:54:58;;;;;;;8.13;2.30;;;15.70;99.90;;;;;;5116058;27;20057;-71
2022/07/14 00:57:24;;;;;;;4.25;1.70;;;15.40;99.90;;;;;;5134569;27;20059;-71
2022/07/14 00:59:50;;;;;;;4.40;1.70;;;15.50;99.90;;;;;;5116257;27;20078;-71
2022/07/14 01:02:17;;;;;;;7.13;2.15;;;16.70;99.90;;;;;;5116358;27;20077;-71
2022/07/14 01:04:45;;;;;;;5.28;1.85;;;15.50;99.90;;;;;;5116131;27;20071;-71
2022/07/14 01:07:12;;;;;;;6.20;1.98;;;15.60;99.90;;;;;;5116063;27;20036;-71
2022/07/14 01:09:41;;;;;;;6.35;1.63;;;15.40;99.90;;;;;;5115977;27;20050;-71
2022/07/14 01:12:08;;;;;;;10.68;2.33;;;15.40;99.90;;;;;;5116421;27;20039;-73
2022/07/14 01:14:35;;;;;;;7.75;1.92;;;15.50;99.90;;;;;;5115635;27;20110;-70
2022/07/14 01:17:01;;;;;;;8.52;2.05;;;15.30;99.90;;;;;;5134470;27;20039;-71
2022/07/14 01:19:27;;;;;;;6.15;2.15;;;16.30;99.90;;;;;;5134194;27;20503;-72
2022/07/14 01:21:54;;;;;;;7.97;2.47;;;15.20;99.90;;;;;;5115890;27;20066;-71
2022/07/14 01:24:21;;;;;;;6.93;1.85;;;17.10;99.90;;;;;;5115696;27;20061;-71
2022/07/14 01:26:47;;;;;;;9.57;2.05;;;;;;;;;;5115799;27;20444;-71
2022/07/14 01:29:13;;;;;;;6.93;1.67;;;15.20;99.90;;;;;;5115159;28;20453;-71
2022/07/14 01:31:39;;;;;;;5.53;1.80;;;15.20;99.90;;;;;;5133958;27;20033;-72
2022/07/14 01:34:04;;;;;;;7.28;1.98;;;15.30;99.90;;;;;;5133703;27;20035;-72
2022/07/14 01:36:30;;;;;;;11.23;2.22;;;15.10;99.90;;;;;;5098508;27;20488;-71
2022/07/14 01:38:55;;;;;;;6.30;1.70;;;15.10;99.90;;;;;;5133850;27;20050;-71
2022/07/14 01:41:21;;;;;;;6.75;1.92;;;15.10;99.90;;;;;;5115337;27;20070;-71
2022/07/14 01:43:48;;;;;;;9.55;2.15;;;15.00;99.90;;;;;;5133771;27;20096;-71
2022/07/14 01:46:16;;;;;;;8.35;2.00;;;;;;;;;;5115400;27;20383;-71
2022/07/14 01:48:42;;;;;;;8.88;1.80;;;14.90;99.90;;;;;;5115280;27;20042;-71
2022/07/14 01:51:08;;;;;;;4.55;1.50;;;14.80;99.90;;;;;;5133684;27;20183;-71
2022/07/14 01:53:34;;;;;;;7.22;1.75;;;15.30;99.90;;;;;;5115404;27;20376;-71
2022/07/14 01:56:00;;;;;;;10.75;2.35;;;14.80;99.90;;;;;;5114866;27;20046;-71
2022/07/14 01:58:26;;;;;;;5.30;1.85;;;14.80;99.90;;;;;;5098206;27;20082;-71
2022/07/14 02:03:36;;;;;;;7.20;2.00;;;15.10;99.90;;;;;;5133423;27;20058;-71
2022/07/14 02:06:03;;;;;;;5.60;1.77;;;15.10;99.90;;;;;;5114595;27;20118;-71
2022/07/14 02:08:28;;;;;;;7.20;2.08;;;14.80;99.90;;;;;;5133537;27;20095;-71
2022/07/14 02:13:38;;;;;;;7.93;2.00;;;14.70;99.90;;;;;;5133253;27;20122;-71
2022/07/14 02:16:04;;;;;;;8.05;1.92;;;14.60;99.90;;;;;;5114456;27;20118;-71
2022/07/14 02:18:30;;;;;;;8.80;2.13;;;14.60;99.90;;;;;;5114969;27;20039;-71
2022/07/14 02:20:55;;;;;;;6.95;2.15;;;14.50;99.90;;;;;;5133174;27;20117;-71
2022/07/14 02:23:23;;;;;;;6.25;1.98;;;14.50;99.90;;;;;;5097960;27;20037;-71
2022/07/14 02:25:49;;;;;;;12.52;2.65;;;14.50;99.90;;;;;;5114417;27;20051;-72
2022/07/14 02:28:15;;;;;;;8.35;2.00;;;14.40;99.90;;;;;;5114546;27;20041;-71
2022/07/14 02:33:20;;;;;;;3.65;2.13;;;14.30;99.90;;;;;;5070597;28;20417;-70
2022/07/14 02:35:45;;;;;;;7.32;2.50;;;14.40;99.90;;;;;;5071328;28;20029;-70
2022/07/14 02:38:11;;;;;;;5.78;2.22;;;14.40;99.90;;;;;;5072143;28;20037;-70
2022/07/14 02:40:36;;;;;;;5.70;2.50;;;14.90;99.90;;;;;;5071731;28;20510;-70
2022/07/14 02:43:02;;;;;;;7.50;2.38;;;14.30;99.90;;;;;;5053885;28;20444;-70
2022/07/14 02:45:28;;;;;;;8.77;2.42;;;14.30;99.90;;;;;;5071476;28;20039;-70
2022/07/14 02:47:53;;;;;;;6.53;2.15;;;14.40;99.90;;;;;;5054150;28;20486;-70
2022/07/14 02:50:19;;;;;;;6.47;2.42;;;14.20;99.90;;;;;;5071929;28;20115;-70
2022/07/14 02:52:45;;;;;;;7.75;2.55;;;14.30;99.90;;;;;;5071845;28;20076;-70
2022/07/14 02:55:10;;;;;;;10.93;2.70;;;14.30;99.90;;;;;;5071336;28;20090;-69
2022/07/14 02:57:36;;;;;;;6.13;2.80;;;14.20;99.90;;;;;;5037420;28;20041;-70
2022/07/14 03:00:04;;;;;;;6.15;2.53;;;14.20;99.90;;;;;;5071618;28;20048;-70
2022/07/14 03:02:29;;;;;;;5.22;2.38;;;14.20;99.90;;;;;;5053671;28;20048;-70
2022/07/14 03:04:55;;;;;;;5.00;1.80;;;14.10;99.90;;;;;;5036861;28;20047;-70
2022/07/14 03:07:21;;;;;;;16.02;2.88;;;14.10;99.90;;;;;;5071770;28;20045;-70
2022/07/14 03:09:47;;;;;;;6.10;2.25;;;14.00;99.90;;;;;;5071779;28;20035;-70
2022/07/14 03:12:12;;;;;;;6.50;2.72;;;14.20;99.90;;;;;;5071623;28;20051;-70
2022/07/14 03:14:38;;;;;;;9.02;3.47;;;14.10;99.90;;;;;;5036630;28;20408;-70
2022/07/14 03:17:03;;;;;;;7.53;3.30;;;13.80;99.90;;;;;;5071734;28;20044;-70
2022/07/14 03:19:29;;;;;;;4.88;2.38;;;13.90;99.90;;;;;;5053613;28;20072;-70
2022/07/14 03:21:54;;;;;;;9.23;3.38;;;13.90;99.90;;;;;;5053471;28;20582;-70
2022/07/14 03:24:23;;;;;;;8.38;3.25;;;14.10;99.90;;;;;;5071280;28;20041;-70
2022/07/14 03:26:48;;;;;;;5.68;2.85;;;14.00;99.90;;;;;;5071388;28;20406;-70
2022/07/14 03:29:14;;;;;;;9.38;2.50;;;14.00;99.90;;;;;;5071373;28;20044;-70
2022/07/14 03:31:39;;;;;;;6.30;2.88;;;13.80;99.90;;;;;;5053217;28;20041;-70
2022/07/14 03:34:05;;;;;;;4.57;2.72;;;14.00;99.90;;;;;;5053477;28;20452;-70
2022/07/14 03:36:31;;;;;;;5.32;2.63;;;13.70;99.90;;;;;;5071449;28;20044;-70
2022/07/14 03:38:57;;;;;;;4.60;2.92;;;13.70;99.90;;;;;;5071435;28;20079;-70
2022/07/14 03:41:22;;;;;;;5.60;2.83;;;14.60;99.90;;;;;;5053474;28;20075;-71
2022/07/14 03:43:48;;;;;;;7.43;3.33;;;13.70;99.90;;;;;;5053148;28;20723;-70
2022/07/14 03:46:14;;;;;;;8.18;3.15;;;13.60;99.90;;;;;;5053422;28;20037;-70
2022/07/14 03:48:40;;;;;;;8.57;3.20;;;13.70;99.90;;;;;;5071510;28;20401;-70
2022/07/14 03:51:06;;;;;;;6.35;2.90;;;14.00;99.90;;;;;;5071309;28;20036;-69
2022/07/14 03:53:32;;;;;;;6.55;3.08;;;13.70;99.90;;;;;;5038706;28;20047;-69
2022/07/14 03:55:59;;;;;;;5.38;2.63;;;13.70;99.90;;;;;;5056902;28;20040;-69
2022/07/14 03:58:26;;;;;;;7.60;2.65;;;13.80;99.90;;;;;;5057116;28;20075;-69
2022/07/14 04:00:51;;;;;;;7.18;2.92;;;13.70;99.90;;;;;;5057136;28;20050;-69
2022/07/14 04:03:17;;;;;;;7.28;3.63;;;15.60;99.90;;;;;;5074942;28;20041;-68
2022/07/14 04:05:43;;;;;;;7.10;3.00;;;13.60;99.90;;;;;;5074700;28;20115;-69
2022/07/14 04:08:09;;;;;;;6.18;3.00;;;13.70;99.90;;;;;;5074740;28;20477;-69
2022/07/14 04:10:35;;;;;;;6.65;3.00;;;13.70;99.90;;;;;;5056825;28;20044;-69
2022/07/14 04:13:01;;;;;;;9.68;3.28;;;13.90;99.90;;;;;;5056573;28;20068;-68
2022/07/14 04:15:28;;;;;;;8.07;3.28;;;13.70;99.90;;;;;;5074489;28;20064;-69
2022/07/14 04:17:54;;;;;;;6.57;3.45;;;13.40;99.90;;;;;;5074701;28;20087;-69
2022/07/14 04:20:20;;;;;;;9.95;3.17;;;13.80;99.90;;;;;;5040047;28;20044;-69
2022/07/14 04:22:47;;;;;;;7.55;2.92;;;13.60;99.90;;;;;;5074490;28;20036;-69
2022/07/14 04:25:13;;;;;;;8.52;2.78;;;13.70;99.90;;;;;;5074210;28;20044;-69
2022/07/14 04:27:39;;;;;;;5.82;2.78;;;13.80;99.90;;;;;;5056263;28;20131;-68
2022/07/14 04:30:06;;;;;;;10.10;3.45;;;13.70;99.90;;;;;;5056660;28;20051;-69
2022/07/14 04:32:32;;;;;;;4.10;2.65;;;14.00;99.90;;;;;;5082294;28;20032;-69
2022/07/14 04:34:57;;;;;;;7.57;2.50;;;14.00;99.90;;;;;;5056913;28;20040;-69
2022/07/14 04:37:23;;;;;;;8.55;2.90;;;14.00;99.90;;;;;;5073107;28;20146;-69
2022/07/14 04:39:48;;;;;;;5.40;2.70;;;13.90;99.90;;;;;;5056726;28;20051;-69
2022/07/14 04:42:14;;;;;;;4.60;2.20;;;14.20;99.90;;;;;;5073979;28;20051;-68
2022/07/14 04:44:41;;;;;;;10.05;2.75;;;14.00;99.90;;;;;;5074151;28;20123;-69
2022/07/14 04:47:07;;;;;;;6.38;2.40;;;14.30;99.90;;;;;;5074097;28;20169;-69
2022/07/14 04:52:17;;;;;;;9.75;2.58;;;15.00;99.90;;;;;;5056147;28;20058;-69
2022/07/14 04:54:44;;;;;;;5.20;2.20;;;14.30;99.90;;;;;;5055879;28;20033;-69
2022/07/14 04:57:10;;;;;;;9.43;2.80;;;14.60;99.90;;;;;;5074359;28;20047;-69
2022/07/14 04:59:35;;;;;;;14.10;3.30;;;14.90;99.90;;;;;;5073998;28;20041;-69
2022/07/14 05:02:01;;;;;;;8.40;3.05;;;14.70;99.90;;;;;;5055803;28;20032;-69
2022/07/14 05:04:27;;;;;;;8.38;2.35;;;14.70;99.90;;;;;;5038787;28;20051;-70
2022/07/14 05:06:52;;;;;;;9.88;2.40;;;14.80;99.90;;;;;;5039065;28;20132;-69
2022/07/14 05:09:18;;;;;;;4.60;2.15;;;15.00;99.90;;;;;;5073545;28;20037;-69
2022/07/14 05:11:45;;;;;;;8.90;2.92;;;14.90;99.90;;;;;;5055920;28;20036;-69
2022/07/14 05:14:10;;;;;;;7.95;2.30;;;15.60;99.90;;;;;;5038543;28;20047;-69
2022/07/14 05:16:36;;;;;;;10.93;2.40;;;15.90;99.90;;;;;;5073637;28;20040;-69
2022/07/14 05:19:02;;;;;;;6.35;2.08;;;15.30;99.90;;;;;;5073465;28;20494;-69
2022/07/14 05:21:27;;;;;;;6.22;1.80;;;15.30;99.90;;;;;;5059976;28;20032;-69
2022/07/14 05:23:53;;;;;;;10.20;2.40;;;15.30;99.90;;;;;;5063650;28;20037;-68
2022/07/14 05:26:19;;;;;;;7.63;2.83;;;15.30;99.90;;;;;;5065627;28;20040;-69
2022/07/14 05:28:44;;;;;;;5.68;1.95;;;16.20;99.90;;;;;;5064086;28;20047;-69
2022/07/14 05:31:10;;;;;;;8.68;1.70;;;15.50;99.90;;;;;;5063637;28;20127;-69
2022/07/14 05:33:36;;;;;;;6.05;1.65;;;15.70;99.90;;;;;;5049082;28;20032;-69
2022/07/14 05:36:02;;;;;;;7.97;1.70;;;15.60;99.90;;;;;;5064556;28;20071;-68
2022/07/14 05:38:31;;;;;;;6.32;1.80;;;15.70;99.90;;;;;;5064055;28;20120;-69
2022/07/14 05:40:57;;;;;;;6.32;1.88;;;16.50;99.90;;;;;;5065122;28;20043;-69
2022/07/14 05:43:23;;;;;;;5.70;2.10;;;15.90;99.90;;;;;;5063573;28;20071;-70
2022/07/14 05:45:48;;;;;;;6.40;1.77;;;16.10;99.90;;;;;;5065043;28;20082;-69
2022/07/14 05:48:14;;;;;;;4.57;1.50;;;16.30;99.90;;;;;;5064758;28;20529;-69
2022/07/14 05:50:39;;;;;;;7.78;1.80;;;16.10;99.90;;;;;;5059767;28;20083;-70
2022/07/14 05:53:05;;;;;;;7.63;2.10;;;16.10;99.90;;;;;;5050508;28;20081;-70
2022/07/14 05:55:31;;;;;;;7.88;2.10;;;16.10;99.90;;;;;;5068676;28;20029;-69
2022/07/14 05:57:56;;;;;;;8.32;1.70;;;16.30;99.90;;;;;;5051479;28;20032;-70
2022/07/14 06:00:22;;;;;;;7.93;1.80;;;16.60;99.90;;;;;;5051499;28;20041;-70
2022/07/14 06:02:48;;;;;;;9.27;2.10;;;16.50;99.90;;;;;;5049056;28;20128;-71
2022/07/14 06:05:13;;;;;;;8.85;1.60;;;16.50;99.90;;;;;;5068704;28;20040;-70
2022/07/14 06:07:39;;;;;;;6.55;1.50;;;16.40;99.90;;;;;;5050782;28;20047;-69
2022/07/14 06:10:06;;;;;;;6.03;1.63;;;16.50;99.90;;;;;;5051227;28;20158;-70
2022/07/14 06:12:37;;;;;;;7.78;1.77;;;16.50;99.90;;;;;;5068766;28;20040;-70
2022/07/14 06:15:05;;;;;;;7.68;2.35;;;16.80;99.90;;;;;;5068627;28;20032;-71
2022/07/14 06:17:34;;;;;;;6.57;1.48;;;16.80;99.90;;;;;;5050592;28;20048;-71
2022/07/14 06:20:07;;;;;;;6.88;1.80;;;16.70;99.90;;;;;;5050697;28;20516;-70
2022/07/14 06:22:38;;;;;;;9.23;2.08;;;16.70;99.90;;;;;;5050998;28;20040;-71
2022/07/14 06:25:04;;;;;;;8.77;1.30;;;17.20;99.90;;;;;;5061983;28;20332;-71
2022/07/14 06:27:30;;;;;;;8.95;1.73;;;17.00;99.90;;;;;;5033988;28;20036;-71
2022/07/14 06:29:56;;;;;;;5.13;1.50;;;17.10;99.90;;;;;;5050827;28;20032;-70
2022/07/14 06:32:23;;;;;;;8.00;1.67;;;17.70;99.90;;;;;;5050419;28;20036;-71
2022/07/14 06:34:49;;;;;;;4.57;1.33;;;17.30;99.90;;;;;;5068082;28;20029;-71
2022/07/14 06:37:15;;;;;;;6.25;1.48;;;17.80;99.90;;;;;;5050562;28;20402;-71
2022/07/14 06:39:41;;;;;;;4.80;1.52;;;17.40;99.90;;;;;;5069142;28;20047;-70
2022/07/14 06:42:07;;;;;;;10.18;1.92;;;17.60;99.90;;;;;;5052452;28;20037;-70
2022/07/14 06:44:33;;;;;;;6.20;1.42;;;17.60;99.90;;;;;;5049989;28;20036;-70
2022/07/14 06:46:59;;;;;;;10.70;1.67;;;17.90;99.90;;;;;;5050025;28;20063;-70
2022/07/14 06:49:25;;;;;;;4.97;1.17;;;17.90;99.90;;;;;;5050021;28;20033;-71
2022/07/14 06:51:51;;;;;;;5.90;1.10;;;18.90;99.90;;;;;;5046661;28;20458;-71
2022/07/14 06:54:16;;;;;;;7.90;1.42;;;18.00;99.90;;;;;;5071499;28;20443;-71
2022/07/14 06:56:42;;;;;;;4.57;1.00;;;18.00;99.90;;;;;;5052234;28;20086;-71
2022/07/14 06:59:08;;;;;;;6.38;1.75;;;19.10;99.90;;;;;;5069733;28;20039;-71
2022/07/14 07:01:34;;;;;;;4.30;1.15;;;18.60;99.90;;;;;;5060912;28;20573;-70
2022/07/14 07:03:59;;;;;;;5.95;1.13;;;18.10;99.90;;;;;;5051082;28;20505;-71
2022/07/14 07:06:44;;;;;;;6.82;0.88;;;18.40;99.90;;;;;;5052066;28;20137;-71
2022/07/14 07:09:14;;;;;;;5.57;1.10;;;18.10;99.90;;;;;;5076831;28;20036;-71
2022/07/14 07:11:41;;;;;;;8.70;1.10;;;18.40;99.90;;;;;;5061549;28;20180;-71
2022/07/14 07:14:07;;;;;;;4.95;0.98;;;18.20;99.90;;;;;;5073177;28;20043;-71
2022/07/14 07:16:33;;;;;;;3.75;1.13;;;18.30;99.90;;;;;;5083652;28;20040;-71
2022/07/14 07:18:58;;;;;;;3.88;1.67;;;18.40;99.90;;;;;;5086454;28;20502;-72
2022/07/14 07:21:24;;;;;;;2.60;0.70;;;20.40;99.90;;;;;;5056362;28;20048;-71
2022/07/14 07:23:50;;;;;;;4.18;1.20;;;18.50;99.90;;;;;;5063028;28;20035;-70
2022/07/14 07:26:17;;;;;;;3.38;0.80;;;18.00;99.90;;;;;;5052727;28;20032;-70
2022/07/14 07:28:43;;;;;;;4.53;1.00;;;19.10;99.90;;;;;;5038371;28;20546;-70
2022/07/14 07:31:08;;;;;;;4.60;0.80;;;19.10;99.90;;;;;;5056683;28;20024;-71
2022/07/14 07:33:34;;;;;;;6.15;1.02;;;19.20;99.90;;;;;;5075381;28;20490;-70
2022/07/14 07:36:00;;;;;;;5.60;1.27;;;19.00;99.90;;;;;;5056651;28;20039;-70
2022/07/14 07:38:27;;;;;;;4.55;0.98;;;19.00;99.90;;;;;;5075033;28;20043;-70
2022/07/14 07:40:53;;;;;;;4.30;0.90;;;19.00;99.90;;;;;;5073154;28;20053;-70
2022/07/14 07:43:22;;;;;;;3.83;0.70;;;18.70;99.90;;;;;;5056883;28;20040;-70
2022/07/14 07:45:51;;;;;;;3.10;0.90;;;19.20;99.90;;;;;;5056251;28;20049;-71
2022/07/14 07:48:17;;;;;;;5.35;0.98;;;18.80;99.90;;;;;;5056362;28;20036;-71
2022/07/14 07:50:44;;;;;;;4.88;0.70;;;20.00;99.90;;;;;;5074278;28;20040;-71
2022/07/14 07:53:10;;;;;;;2.42;0.70;;;18.90;99.90;;;;;;5056457;28;20033;-71
2022/07/14 07:55:36;;;;;;;3.25;0.75;;;19.30;99.90;;;;;;5074257;28;20033;-71
2022/07/14 07:58:02;;;;;;;5.00;0.60;;;19.20;99.90;;;;;;5040004;28;20548;-71
2022/07/14 08:00:28;;;;;;;6.18;0.98;;;20.40;99.90;;;;;;5055315;28;20032;-70
2022/07/14 08:02:54;;;;;;;2.83;0.60;;;19.50;99.90;;;;;;5056482;28;20048;-71
2022/07/14 08:05:22;;;;;;;3.85;0.65;;;19.40;99.90;;;;;;5072790;28;20104;-71
2022/07/14 08:07:52;;;;;;;2.03;0.40;;;19.40;99.90;;;;;;5044398;28;20040;-71
2022/07/14 08:10:18;;;;;;;1.67;0.57;;;19.70;99.90;;;;;;5045492;28;20044;-71
2022/07/14 08:12:45;;;;;;;1.83;0.77;;;19.60;99.90;;;;;;5056597;28;20173;-71
2022/07/14 08:15:11;;;;;;;4.55;0.70;;;19.90;99.90;;;;;;5056860;28;20032;-71
2022/07/14 08:17:37;;;;;;;4.05;1.27;;;19.80;99.90;;;;;;5084182;28;20204;-70
2022/07/14 08:20:05;;;;;;;3.20;0.80;;;19.90;99.90;;;;;;5059961;28;20174;-71
2022/07/14 08:22:30;;;;;;;2.78;0.70;;;20.20;99.90;;;;;;5036755;28;20051;-71
2022/07/14 08:24:57;;;;;;;4.25;0.77;;;20.30;99.90;;;;;;5044168;28;20040;-71
2022/07/14 08:27:23;;;;;;;5.40;1.08;;;20.40;99.90;;;;;;5056053;28;20513;-71
2022/07/14 08:29:49;;;;;;;2.30;1.00;;;20.20;99.90;;;;;;5056718;28;20494;-71
2022/07/14 08:32:16;;;;;;;5.05;0.77;;;20.40;99.90;;;;;;5041856;22;20100;-68
2022/07/14 08:34:42;;;;;;;6.03;1.15;;;20.30;99.90;;;;;;5011448;28;20578;-70
2022/07/14 08:37:07;;;;;;;2.15;0.77;;;20.30;99.90;;;;;;5012882;28;20065;-71
2022/07/14 08:39:33;;;;;;;2.15;0.75;;;20.20;99.90;;;;;;5013917;28;20034;-70
2022/07/14 08:42:03;;;;;;;4.00;1.10;;;20.30;99.90;;;;;;5009405;28;20062;-70
2022/07/14 08:44:29;;;;;;;3.88;0.70;;;20.10;99.90;;;;;;5020480;28;20037;-70
2022/07/14 08:46:56;;;;;;;3.85;0.98;;;20.10;99.90;;;;;;4994931;28;20038;-70
2022/07/14 08:49:22;;;;;;;2.65;0.80;;;20.00;99.90;;;;;;4993651;28;20086;-70
2022/07/14 08:51:49;;;;;;;4.30;1.10;;;20.70;99.90;;;;;;4993258;28;20034;-70
2022/07/14 08:54:16;;;;;;;2.55;0.80;;;20.30;99.90;;;;;;4994597;28;20468;-70
2022/07/14 08:56:41;;;;;;;5.13;0.90;;;20.10;99.90;;;;;;4993713;28;20516;-70
2022/07/14 08:59:08;;;;;;;8.07;1.27;;;20.40;99.90;;;;;;4994376;28;20138;-70
2022/07/14 09:01:35;;;;;;;2.45;1.10;;;21.20;99.90;;;;;;4993042;28;20053;-70
2022/07/14 09:04:01;;;;;;;2.15;0.82;;;20.60;99.90;;;;;;4992809;28;20068;-70
2022/07/14 09:06:46;;;;;;;6.57;0.80;;;21.50;99.90;;;;;;4993060;28;20042;-71
2022/07/14 09:09:21;;;;;;;3.60;0.80;;;20.70;99.90;;;;;;5009564;28;20045;-70
2022/07/14 09:11:57;;;;;;;3.30;1.05;;;21.10;99.90;;;;;;5012328;28;20046;-70
2022/07/14 09:14:24;;;;;;;4.72;0.93;;;20.40;99.90;;;;;;5012665;28;20514;-70
2022/07/14 09:16:52;;;;;;;3.90;0.90;;;20.90;99.90;;;;;;5013842;28;20046;-71
2022/07/14 09:19:19;;;;;;;5.10;1.77;;;20.50;99.90;;;;;;5005197;28;20069;-70
2022/07/14 09:21:53;;;;;;;2.72;0.90;;;20.50;99.90;;;;;;5013631;28;20077;-71
2022/07/14 09:24:21;;;;;;;3.28;0.55;;;21.20;99.90;;;;;;5003221;28;20046;-70
2022/07/14 09:26:52;;;;;;;3.20;0.60;;;20.50;99.90;;;;;;4994235;28;20046;-70
2022/07/14 09:29:18;;;;;;;3.45;0.93;;;21.30;99.90;;;;;;4976220;28;20546;-70
2022/07/14 09:31:44;;;;;;;5.18;0.93;;;20.50;99.90;;;;;;4992208;28;20065;-69
2022/07/14 09:34:26;;;;;;;3.40;1.30;;;21.20;99.90;;;;;;5008218;28;20085;-68
2022/07/14 09:36:52;;;;;;;2.22;1.00;;;21.90;99.90;;;;;;4993952;28;20038;-68
2022/07/14 09:39:18;;;;;;;4.82;1.08;;;21.30;99.90;;;;;;5008167;28;20117;-69
2022/07/14 09:41:53;;;;;;;3.72;1.25;;;21.20;99.90;;;;;;4996018;28;20515;-70
2022/07/14 09:44:20;;;;;;;5.18;0.82;;;21.10;99.90;;;;;;4991476;28;20121;-69
2022/07/14 09:46:48;;;;;;;4.75;1.08;;;21.00;99.90;;;;;;5000471;28;20052;-68
2022/07/14 09:49:15;;;;;;;4.32;1.00;;;21.00;99.90;;;;;;5001462;28;20511;-69
2022/07/14 09:52:04;;;;;;;7.00;2.47;;;20.80;99.90;;;;;;4991465;28;20034;-69
2022/07/14 09:54:50;;;;;;;4.65;1.83;;;20.70;99.90;;;;;;4981653;28;20058;-69
2022/07/14 09:57:21;;;;;;;5.30;0.98;;;20.90;99.90;;;;;;4991625;28;20034;-69
2022/07/14 10:00:05;;;;;;;2.08;0.70;;;20.60;99.90;;;;;;4992400;28;20069;-69
2022/07/14 10:02:31;;;;;;;5.32;1.15;;;20.70;99.90;;;;;;5012471;28;20507;-69
2022/07/14 10:05:01;;;;;;;2.50;0.52;;;21.00;99.90;;;;;;5010921;28;20045;-69
2022/07/14 10:07:29;;;;;;;3.25;0.88;;;21.70;99.90;;;;;;5010861;28;20065;-70
2022/07/14 10:10:04;;;;;;;3.85;1.05;;;21.30;99.90;;;;;;5027892;28;20038;-69
2022/07/14 10:12:30;;;;;;;2.95;1.05;;;20.90;99.90;;;;;;5011039;28;20042;-70
2022/07/14 10:15:00;;;;;;;5.38;1.33;;;21.10;99.90;;;;;;5010819;28;20524;-70
2022/07/14 10:17:28;;;;;;;4.70;1.50;;;20.90;99.90;;;;;;5011053;28;20041;-70
2022/07/14 10:19:54;;;;;;;3.38;1.85;;;20.90;99.90;;;;;;5012139;28;20058;-70
2022/07/14 10:22:20;;;;;;;4.20;1.67;;;21.90;99.90;;;;;;5027372;28;20515;-70
2022/07/14 10:24:49;;;;;;;2.15;1.25;;;20.90;99.90;;;;;;5010600;28;20155;-71
2022/07/14 10:27:18;;;;;;;6.00;1.00;;;21.50;99.90;;;;;;5012230;28;20045;-71
2022/07/14 10:29:51;;;;;;;4.70;1.10;;;22.20;99.90;;;;;;5005898;28;20371;-70
2022/07/14 10:32:56;;;;;;;5.53;0.98;;;21.40;99.90;;;;;;4999664;28;20027;-70
2022/07/14 10:35:59;;;;;;;1.92;0.88;;;21.30;99.90;;;;;;5011797;28;20444;-71
2022/07/14 10:38:51;;;;;;;6.63;1.00;;;20.90;99.90;;;;;;5027370;28;20046;-71
2022/07/14 10:41:25;;;;;;;4.65;0.98;;;21.10;99.90;;;;;;4981657;28;20049;-72
2022/07/14 10:44:11;;;;;;;3.22;0.88;;;20.80;99.90;;;;;;4992271;28;20050;-74
2022/07/14 10:46:40;;;;;;;2.60;0.90;;;20.70;99.90;;;;;;4990982;28;20504;-70
2022/07/14 10:49:08;;;;;;;4.05;1.00;;;20.80;99.90;;;;;;4990719;28;20085;-70
2022/07/14 10:51:53;;;;;;;4.18;0.93;;;21.50;99.90;;;;;;4975209;28;20064;-70
2022/07/14 10:54:30;;;;;;;6.20;0.80;;;20.90;99.90;;;;;;5000696;28;20026;-70
2022/07/14 10:57:12;;;;;;;3.60;1.23;;;21.50;99.90;;;;;;4974589;28;20098;-70
2022/07/14 10:59:39;;;;;;;2.95;0.95;;;21.00;99.90;;;;;;4990598;28;20046;-70
2022/07/14 11:02:14;;;;;;;2.72;1.50;;;20.90;99.90;;;;;;4990592;28;20038;-70
2022/07/14 11:04:58;;;;;;;4.70;1.20;;;20.80;99.90;;;;;;4985388;28;20046;-70
2022/07/14 11:07:40;;;;;;;4.78;0.93;;;20.90;99.90;;;;;;4986856;28;20095;-70
2022/07/14 11:10:26;;;;;;;1.95;1.02;;;21.00;99.90;;;;;;4976105;28;20034;-70
2022/07/14 11:13:03;;;;;;;3.80;1.40;;;20.90;99.90;;;;;;4986893;28;20038;-72
2022/07/14 11:15:40;;;;;;;6.32;0.95;;;20.80;99.90;;;;;;4962249;28;20092;-72
2022/07/14 11:18:18;;;;;;;3.95;1.27;;;20.40;99.90;;;;;;4977468;28;20546;-73
2022/07/14 11:21:05;;;;;;;4.40;2.85;;;20.90;99.90;;;;;;4989066;28;20439;-71
2022/07/14 11:23:51;;;;;;;9.90;1.60;;;20.60;99.90;;;;;;4989746;28;20058;-71
2022/07/14 11:26:50;;;;;;;3.58;1.85;;;21.30;99.90;;;;;;4990485;28;20385;-71
2022/07/14 11:29:31;;;;;;;5.57;1.50;;;21.10;99.90;;;;;;4954410;28;20412;-71
2022/07/14 11:31:56;;;;;;;6.32;1.13;;;21.90;99.90;;;;;;4991802;28;20502;-71
2022/07/14 11:37:13;;;;;;;2.65;0.80;;;22.40;99.90;;;;;;5004540;28;20042;-71
2022/07/14 11:39:42;;;;;;;2.05;0.60;;;22.70;99.90;;;;;;5010010;28;20522;-71
2022/07/14 11:42:14;;;;;;;3.35;0.75;;;22.00;99.90;;;;;;4993586;28;20503;-71
2022/07/14 11:44:40;;;;;;;2.42;0.60;;;22.10;99.90;;;;;;5010963;28;20508;-71
2022/07/14 11:47:29;;;;;;;6.18;0.88;;;21.90;99.70;;;;;;5010025;28;20045;-72
2022/07/14 11:50:02;;;;;;;6.72;0.80;;;22.20;99.70;;;;;;5010169;28;20038;-71
2022/07/14 11:52:34;;;;;;;1.65;0.50;;;22.60;99.90;;;;;;5011345;28;20042;-72
2022/07/14 11:55:02;;;;;;;1.67;0.60;;;23.00;99.90;;;;;;5009824;28;20042;-71
2022/07/14 11:57:28;;;;;;;2.13;0.70;;;22.60;99.90;;;;;;5003750;28;20066;-72
2022/07/14 12:00:00;;;;;;;3.28;0.90;;;22.30;99.90;;;;;;5006886;28;20035;-72
2022/07/14 12:02:26;;;;;;;6.57;0.85;;;22.20;99.90;;;;;;4992120;28;20053;-72
2022/07/14 12:04:54;;;;;;;2.25;0.60;;;22.90;99.90;;;;;;4990300;28;20042;-72
2022/07/14 12:07:22;;;;;;;2.78;0.57;;;22.20;99.90;;;;;;4990097;28;20530;-72
2022/07/14 12:09:49;;;;;;;7.70;0.93;;;22.70;99.90;;;;;;4990384;28;20034;-72
2022/07/14 12:12:16;;;;;;;3.67;0.70;;;22.60;99.90;;;;;;4990964;28;20049;-72
2022/07/14 12:14:44;;;;;;;4.38;0.80;;;22.70;99.90;;;;;;4992391;28;20054;-72
2022/07/14 12:17:10;;;;;;;2.45;0.60;;;23.30;99.90;;;;;;4993772;28;20508;-72
2022/07/14 12:19:36;;;;;;;2.88;0.73;;;22.30;99.90;;;;;;4993661;28;20049;-72
2022/07/14 12:22:04;;;;;;;2.80;0.70;;;22.40;99.90;;;;;;4993469;28;20477;-72
2022/07/14 12:24:31;;;;;;;1.80;1.23;;;22.60;99.90;;;;;;4993563;28;20221;-72
2022/07/14 12:27:00;;;;;;;2.30;0.50;;;22.10;99.90;;;;;;4994441;28;20344;-71
2022/07/14 12:29:27;;;;;;;3.33;1.45;;;22.10;99.90;;;;;;4993409;28;20042;-72
2022/07/14 12:31:53;;;;;;;2.03;0.88;;;22.30;99.90;;;;;;4994452;28;20069;-73
2022/07/14 12:34:20;;;;;;;4.07;1.55;;;22.90;99.90;;;;;;4993409;28;20534;-72
2022/07/14 12:36:46;;;;;;;2.45;0.60;;;23.10;99.90;;;;;;4993331;28;20042;-72
2022/07/14 12:39:12;;;;;;;3.45;0.52;;;22.80;99.90;;;;;;4994293;28;20078;-71
2022/07/14 12:41:40;;;;;;;2.60;0.70;;;22.90;99.90;;;;;;4992170;28;20093;-71
2022/07/14 12:44:10;;;;;;;1.63;0.80;;;22.60;99.90;;;;;;4992504;28;20038;-72
2022/07/14 12:46:36;;;;;;;3.67;0.82;;;22.50;99.90;;;;;;5006409;28;20538;-71
2022/07/14 12:49:06;;;;;;;1.15;0.60;;;22.40;99.90;;;;;;5012582;28;20096;-71
2022/07/14 12:51:37;;;;;;;3.70;0.77;;;22.80;99.90;;;;;;5004188;28;20076;-72
2022/07/14 12:54:17;;;;;;;3.28;0.70;;;22.40;99.90;;;;;;4997695;28;20049;-71
2022/07/14 12:56:51;;;;;;;5.82;0.70;;;22.50;99.90;;;;;;4992898;28;20042;-71
2022/07/14 12:59:29;;;;;;;3.30;0.52;;;22.80;99.90;;;;;;4994341;28;20042;-71
2022/07/14 13:02:00;;;;;;;3.03;0.73;;;22.90;99.90;;;;;;4993065;28;20125;-71
2022/07/14 13:04:45;;;;;;;4.40;0.77;;;23.10;99.90;;;;;;4992451;28;20038;-71
2022/07/14 13:07:24;;;;;;;2.03;0.40;;;22.80;99.90;;;;;;5009586;28;20074;-72